createdAt,value
2023-04-23T00:00:06.832Z,10.79
2023-04-23T00:03:05.172Z,10.77
2023-04-23T00:05:37.037Z,10.72
2023-04-23T00:08:10.534Z,10.69
2023-04-23T00:10:41.700Z,10.65
2023-04-23T00:13:16.496Z,10.62
2023-04-23T00:16:14.142Z,10.61
2023-04-23T00:18:44.737Z,10.58
2023-04-23T00:21:15.852Z,10.51
2023-04-23T00:23:44.946Z,10.51
2023-04-23T00:26:15.522Z,10.52
2023-04-23T00:28:46.237Z,10.49
2023-04-23T00:31:16.839Z,10.44
2023-04-23T00:33:47.504Z,10.41
2023-04-23T00:36:18.884Z,10.38
2023-04-23T00:38:49.596Z,10.30
2023-04-23T00:41:20.747Z,10.23
2023-04-23T00:43:52.105Z,10.16
2023-04-23T00:46:26.166Z,10.10
2023-04-23T00:48:57.022Z,10.11
2023-04-23T00:51:28.020Z,10.17
2023-04-23T00:53:57.086Z,10.22
2023-04-23T00:56:28.376Z,10.23
2023-04-23T00:58:59.306Z,10.28
2023-04-23T01:01:30.086Z,10.30
2023-04-23T01:04:01.638Z,10.31
2023-04-23T01:06:32.696Z,10.34
2023-04-23T01:09:03.685Z,10.35
2023-04-23T01:11:33.150Z,10.32
2023-04-23T01:14:04.876Z,10.25
2023-04-23T01:16:35.981Z,10.24
2023-04-23T01:19:08.515Z,10.25
2023-04-23T01:21:40.170Z,10.25
2023-04-23T01:24:12.308Z,10.27
2023-04-23T01:26:43.665Z,10.29
2023-04-23T01:29:14.787Z,10.27
2023-04-23T01:31:44.934Z,10.20
2023-04-23T01:34:15.648Z,10.12
2023-04-23T01:36:47.757Z,10.08
2023-04-23T01:39:18.480Z,10.05
2023-04-23T01:41:49.625Z,10.03
2023-04-23T01:44:20.285Z,10.00
2023-04-23T01:46:50.924Z,9.90
2023-04-23T01:49:21.703Z,9.88
2023-04-23T01:51:52.357Z,9.86
2023-04-23T01:54:23.014Z,9.84
2023-04-23T01:56:53.743Z,9.83
2023-04-23T01:59:24.612Z,9.81
2023-04-23T02:01:55.269Z,9.75
2023-04-23T02:04:26.261Z,9.66
2023-04-23T02:06:55.475Z,9.60
2023-04-23T02:09:26.151Z,9.49
2023-04-23T02:11:56.741Z,9.49
2023-04-23T02:14:27.474Z,9.49
2023-04-23T02:16:58.126Z,9.41
2023-04-23T02:19:28.852Z,9.31
2023-04-23T02:21:59.557Z,9.24
2023-04-23T02:24:30.761Z,9.20
2023-04-23T02:27:01.384Z,9.21
2023-04-23T02:29:32.237Z,9.25
2023-04-23T02:32:02.986Z,9.24
2023-04-23T02:34:33.994Z,9.17
2023-04-23T02:37:03.064Z,9.08
2023-04-23T02:39:34.367Z,9.01
2023-04-23T02:42:05.235Z,9.01
2023-04-23T02:44:35.983Z,9.07
2023-04-23T02:47:07.019Z,9.15
2023-04-23T02:49:37.780Z,9.18
2023-04-23T02:52:08.516Z,9.18
2023-04-23T02:54:39.310Z,9.21
2023-04-23T02:57:10.270Z,9.22
2023-04-23T02:59:40.947Z,9.20
2023-04-23T03:02:11.680Z,9.16
2023-04-23T03:04:42.639Z,9.12
2023-04-23T03:07:13.515Z,9.08
2023-04-23T03:09:44.145Z,9.05
2023-04-23T03:12:14.766Z,9.06
2023-04-23T03:14:45.497Z,9.08
2023-04-23T03:17:24.883Z,9.09
2023-04-23T03:19:56.239Z,9.09
2023-04-23T03:22:26.882Z,9.10
2023-04-23T03:25:17.524Z,9.15
2023-04-23T03:27:51.340Z,9.20
2023-04-23T03:30:22.218Z,9.24
2023-04-23T03:32:53.195Z,9.26
2023-04-23T03:35:23.099Z,9.24
2023-04-23T03:37:54.131Z,9.23
2023-04-23T03:40:23.223Z,9.23
2023-04-23T03:42:53.847Z,9.24
2023-04-23T03:45:24.921Z,9.25
2023-04-23T03:47:55.970Z,9.23
2023-04-23T03:50:26.675Z,9.24
2023-04-23T03:52:57.828Z,9.27
2023-04-23T03:55:35.498Z,9.31
2023-04-23T03:58:06.162Z,9.37
2023-04-23T04:00:37.084Z,9.46
2023-04-23T04:03:08.096Z,9.54
2023-04-23T04:05:38.823Z,9.62
2023-04-23T04:08:09.583Z,9.71
2023-04-23T04:10:40.310Z,9.79
2023-04-23T04:13:10.956Z,9.89
2023-04-23T04:15:41.639Z,9.98
2023-04-23T04:18:12.270Z,10.08
2023-04-23T04:20:42.960Z,10.17
2023-04-23T04:23:13.733Z,10.27
2023-04-23T04:25:44.325Z,10.36
2023-04-23T04:28:15.468Z,10.46
2023-04-23T04:30:46.217Z,10.55
2023-04-23T04:33:51.031Z,10.74
2023-04-23T04:36:21.744Z,11.83
2023-04-23T04:38:52.407Z,13.29
2023-04-23T04:41:23.092Z,14.36
2023-04-23T04:43:56.031Z,15.32
2023-04-23T04:46:27.042Z,16.38
2023-04-23T04:48:57.788Z,17.49
2023-04-23T04:51:28.859Z,18.35
2023-04-23T04:53:59.475Z,18.55
2023-04-23T04:56:28.521Z,18.57
2023-04-23T04:58:59.144Z,18.73
2023-04-23T05:01:28.575Z,18.79
2023-04-23T05:04:02.315Z,18.41
2023-04-23T05:06:33.699Z,18.02
2023-04-23T05:09:04.522Z,17.66
2023-04-23T05:11:35.381Z,17.38
2023-04-23T05:14:04.457Z,17.07
2023-04-23T05:16:36.750Z,16.75
2023-04-23T05:19:07.385Z,16.55
2023-04-23T05:21:38.085Z,16.32
2023-04-23T05:24:07.258Z,16.10
2023-04-23T05:26:40.219Z,15.88
2023-04-23T05:29:10.900Z,15.71
2023-04-23T05:31:42.053Z,15.56
2023-04-23T05:34:12.666Z,15.39
2023-04-23T05:36:43.393Z,15.27
2023-04-23T05:39:14.113Z,15.14
2023-04-23T05:41:45.427Z,15.11
2023-04-23T05:44:17.254Z,15.07
2023-04-23T05:46:47.913Z,15.06
2023-04-23T05:49:18.589Z,15.07
2023-04-23T05:51:49.643Z,15.06
2023-04-23T05:54:20.756Z,15.07
2023-04-23T05:56:52.838Z,15.09
2023-04-23T05:59:25.764Z,15.12
2023-04-23T06:01:56.540Z,15.12
2023-04-23T06:04:27.683Z,15.14
2023-04-23T06:06:58.805Z,15.16
2023-04-23T06:09:29.389Z,15.19
2023-04-23T06:12:00.177Z,15.23
2023-04-23T06:14:30.929Z,15.25
2023-04-23T06:17:01.553Z,15.31
2023-04-23T06:19:34.813Z,15.33
2023-04-23T06:22:05.569Z,15.37
2023-04-23T06:24:36.831Z,15.41
2023-04-23T06:27:07.513Z,15.45
2023-04-23T06:29:38.438Z,15.49
2023-04-23T06:32:09.215Z,15.54
2023-04-23T06:34:46.776Z,15.62
2023-04-23T06:37:24.260Z,15.71
2023-04-23T06:39:55.240Z,15.77
2023-04-23T06:42:25.932Z,15.85
2023-04-23T06:44:56.933Z,15.94
2023-04-23T06:47:27.693Z,16.04
2023-04-23T06:49:58.617Z,16.12
2023-04-23T06:52:29.309Z,16.24
2023-04-23T06:54:59.900Z,16.36
2023-04-23T06:57:30.745Z,16.50
2023-04-23T06:59:59.745Z,16.66
2023-04-23T07:02:30.501Z,16.86
2023-04-23T07:04:59.788Z,17.05
2023-04-23T07:07:30.592Z,17.21
2023-04-23T07:10:01.250Z,17.37
2023-04-23T07:12:31.922Z,17.53
2023-04-23T07:15:02.735Z,17.68
2023-04-23T07:17:31.997Z,17.82
2023-04-23T07:20:02.668Z,17.94
2023-04-23T07:22:45.369Z,18.06
2023-04-23T07:25:16.112Z,18.19
2023-04-23T07:27:45.382Z,18.29
2023-04-23T07:30:16.583Z,18.26
2023-04-23T07:32:47.354Z,18.25
2023-04-23T07:35:16.611Z,18.36
2023-04-23T07:37:47.374Z,18.46
2023-04-23T07:40:18.184Z,18.53
2023-04-23T07:42:47.265Z,18.57
2023-04-23T07:45:18.113Z,18.59
2023-04-23T07:47:47.822Z,18.58
2023-04-23T07:50:18.781Z,18.57
2023-04-23T07:52:51.947Z,18.62
2023-04-23T07:55:21.071Z,18.68
2023-04-23T07:57:51.710Z,18.75
2023-04-23T08:00:22.464Z,18.86
2023-04-23T08:02:53.124Z,18.99
2023-04-23T08:05:24.387Z,19.10
2023-04-23T08:07:55.078Z,19.24
2023-04-23T08:10:26.029Z,19.38
2023-04-23T08:12:55.660Z,19.55
2023-04-23T08:15:26.507Z,19.70
2023-04-23T08:17:57.268Z,19.88
2023-04-23T08:20:26.623Z,20.08
2023-04-23T08:22:57.272Z,20.22
2023-04-23T08:25:28.135Z,20.31
2023-04-23T08:27:58.759Z,20.36
2023-04-23T08:30:29.817Z,20.39
2023-04-23T08:33:00.535Z,20.48
2023-04-23T08:35:31.285Z,20.59
2023-04-23T08:38:02.026Z,20.64
2023-04-23T08:40:31.918Z,20.64
2023-04-23T08:43:08.674Z,20.63
2023-04-23T08:45:42.229Z,20.66
2023-04-23T08:48:13.793Z,20.77
2023-04-23T08:50:45.901Z,20.92
2023-04-23T08:53:19.504Z,21.07
2023-04-23T08:55:51.596Z,21.23
2023-04-23T08:58:23.639Z,21.29
2023-04-23T09:00:55.630Z,21.45
2023-04-23T09:03:26.836Z,21.65
2023-04-23T09:05:57.893Z,21.78
2023-04-23T09:08:29.127Z,21.84
2023-04-23T09:11:01.794Z,21.96
2023-04-23T09:13:33.882Z,22.09
2023-04-23T09:16:06.569Z,22.21
2023-04-23T09:18:37.565Z,22.33
2023-04-23T09:21:08.814Z,22.27
2023-04-23T09:23:41.404Z,22.25
2023-04-23T09:26:19.401Z,22.30
2023-04-23T09:28:50.603Z,22.41
2023-04-23T09:31:24.844Z,22.48
2023-04-23T09:33:55.748Z,22.57
2023-04-23T09:36:26.431Z,22.67
2023-04-23T09:39:00.358Z,22.78
2023-04-23T09:41:31.027Z,22.83
2023-04-23T09:44:02.501Z,22.87
2023-04-23T09:46:37.754Z,22.89
2023-04-23T09:49:09.507Z,22.90
2023-04-23T09:51:41.194Z,22.95
2023-04-23T09:54:16.226Z,23.08
2023-04-23T09:56:51.251Z,23.24
2023-04-23T09:59:46.787Z,23.26
2023-04-23T10:02:17.545Z,23.42
2023-04-23T10:04:52.321Z,23.59
2023-04-23T10:07:25.789Z,23.76
2023-04-23T10:09:56.457Z,23.94
2023-04-23T10:12:46.175Z,24.01
2023-04-23T10:15:18.694Z,24.09
2023-04-23T10:17:50.647Z,24.08
2023-04-23T10:20:23.064Z,24.07
2023-04-23T10:22:55.291Z,24.05
2023-04-23T10:25:26.153Z,23.99
2023-04-23T10:27:58.469Z,23.92
2023-04-23T10:30:30.019Z,23.93
2023-04-23T10:33:02.693Z,23.93
2023-04-23T10:35:34.556Z,23.88
2023-04-23T10:38:05.455Z,23.83
2023-04-23T10:40:41.328Z,23.76
2023-04-23T10:43:12.216Z,23.67
2023-04-23T10:45:43.656Z,23.80
2023-04-23T10:48:14.404Z,23.91
2023-04-23T10:51:04.740Z,23.79
2023-04-23T10:53:35.959Z,23.73
2023-04-23T10:56:10.590Z,23.73
2023-04-23T10:58:53.573Z,23.71
2023-04-23T11:15:34.193Z,24.04
2023-04-23T11:18:05.307Z,24.02
2023-04-23T11:20:37.470Z,23.95
2023-04-23T11:23:08.522Z,23.82
2023-04-23T11:25:42.083Z,23.63
2023-04-23T11:28:13.014Z,23.42
2023-04-23T11:30:43.719Z,23.27
2023-04-23T11:33:14.450Z,23.17
2023-04-23T11:35:45.256Z,23.04
2023-04-23T11:38:15.924Z,22.91
2023-04-23T11:40:51.536Z,22.67
2023-04-23T11:43:22.122Z,22.39
2023-04-23T11:45:51.264Z,22.12
2023-04-23T11:48:21.954Z,21.81
2023-04-23T11:50:52.489Z,21.54
2023-04-23T11:53:23.652Z,21.29
2023-04-23T11:55:55.305Z,21.10
2023-04-23T11:58:25.955Z,20.98
2023-04-23T12:00:58.933Z,20.93
2023-04-23T12:03:29.734Z,21.03
2023-04-23T12:06:00.573Z,21.28
2023-04-23T12:08:34.593Z,21.55
2023-04-23T12:11:05.686Z,21.85
2023-04-23T12:13:39.683Z,22.17
2023-04-23T12:16:11.210Z,22.41
2023-04-23T12:18:43.241Z,22.59
2023-04-23T12:21:14.775Z,22.66
2023-04-23T12:23:45.656Z,22.69
2023-04-23T12:26:19.088Z,22.68
2023-04-23T12:28:51.420Z,22.55
2023-04-23T12:31:22.755Z,22.36
2023-04-23T12:34:02.080Z,22.15
2023-04-23T12:36:33.669Z,21.97
2023-04-23T12:39:25.414Z,21.85
2023-04-23T12:41:57.438Z,21.86
2023-04-23T12:44:28.617Z,21.99
2023-04-23T12:47:01.293Z,22.11
2023-04-23T12:49:33.786Z,22.15
2023-04-23T12:52:06.236Z,22.04
2023-04-23T12:54:38.683Z,21.85
2023-04-23T12:57:12.298Z,21.67
2023-04-23T12:59:43.165Z,21.48
2023-04-23T13:02:14.222Z,21.40
2023-04-23T13:04:44.853Z,21.41
2023-04-23T13:07:13.958Z,21.54
2023-04-23T13:09:44.865Z,21.76
2023-04-23T13:12:15.828Z,21.94
2023-04-23T13:14:46.819Z,22.13
2023-04-23T13:17:17.552Z,22.28
2023-04-23T13:19:48.164Z,22.35
2023-04-23T13:22:18.778Z,22.40
2023-04-23T13:24:49.569Z,22.48
2023-04-23T13:27:20.226Z,22.63
2023-04-23T13:29:50.879Z,22.80
2023-04-23T13:32:22.720Z,22.86
2023-04-23T13:34:53.500Z,22.84
2023-04-23T13:37:24.217Z,22.78
2023-04-23T13:39:54.953Z,22.67
2023-04-23T13:42:25.641Z,22.56
2023-04-23T13:44:56.291Z,22.52
2023-04-23T13:47:27.085Z,22.52
2023-04-23T13:49:58.290Z,22.41
2023-04-23T13:52:28.998Z,22.27
2023-04-23T13:54:59.789Z,22.15
2023-04-23T13:57:30.441Z,21.99
2023-04-23T14:00:01.145Z,21.87
2023-04-23T14:02:31.918Z,21.73
2023-04-23T14:05:02.658Z,21.59
2023-04-23T14:07:33.526Z,21.48
2023-04-23T14:10:04.593Z,21.34
2023-04-23T14:12:35.346Z,21.23
2023-04-23T14:15:07.817Z,21.14
2023-04-23T14:17:39.545Z,21.07
2023-04-23T14:20:10.997Z,21.04
2023-04-23T14:22:41.974Z,20.96
2023-04-23T14:25:24.244Z,20.88
2023-04-23T14:28:02.287Z,20.88
2023-04-23T14:30:34.434Z,20.88
2023-04-23T14:33:05.247Z,20.87
2023-04-23T14:38:12.510Z,20.95
2023-04-23T14:40:43.168Z,20.97
2023-04-23T14:43:15.818Z,20.98
2023-04-23T14:45:47.208Z,20.94
2023-04-23T14:48:17.982Z,20.91
2023-04-23T14:50:47.037Z,20.88
2023-04-23T14:53:18.787Z,20.83
2023-04-23T14:55:49.372Z,20.79
2023-04-23T14:58:20.104Z,20.82
2023-04-23T15:00:49.168Z,20.85
2023-04-23T15:03:20.042Z,20.88
2023-04-23T15:05:50.813Z,20.89
2023-04-23T15:08:19.897Z,20.84
2023-04-23T15:10:50.514Z,20.73
2023-04-23T15:13:36.493Z,20.66
2023-04-23T15:16:26.290Z,20.54
2023-04-23T15:19:07.497Z,20.43
2023-04-23T15:21:38.652Z,20.37
2023-04-23T15:24:09.491Z,20.29
2023-04-23T15:26:38.513Z,20.18
2023-04-23T15:29:09.485Z,20.04
2023-04-23T15:31:40.434Z,19.94
2023-04-23T15:34:11.278Z,19.86
2023-04-23T15:36:41.950Z,19.79
2023-04-23T15:39:11.058Z,19.74
2023-04-23T15:41:43.045Z,19.66
2023-04-23T15:44:15.540Z,19.64
2023-04-23T15:46:44.580Z,19.63
2023-04-23T15:49:15.199Z,19.61
2023-04-23T15:51:46.099Z,19.61
2023-04-23T15:54:16.714Z,19.59
2023-04-23T15:56:47.464Z,19.56
2023-04-23T15:59:16.700Z,19.54
2023-04-23T16:01:47.881Z,19.52
2023-04-23T16:04:18.717Z,19.50
2023-04-23T16:06:49.646Z,19.48
2023-04-23T16:09:18.719Z,19.47
2023-04-23T16:11:49.467Z,19.44
2023-04-23T16:14:18.517Z,19.43
2023-04-23T16:16:49.325Z,19.40
2023-04-23T16:19:20.570Z,19.41
2023-04-23T16:21:51.285Z,19.42
2023-04-23T16:24:21.985Z,19.43
2023-04-23T16:26:51.118Z,19.45
2023-04-23T16:29:24.431Z,19.43
2023-04-23T16:31:55.149Z,19.43
2023-04-23T16:34:25.764Z,19.43
2023-04-23T16:37:25.896Z,19.36
2023-04-23T16:39:46.490Z,19.31
2023-04-23T16:42:15.614Z,19.27
2023-04-23T16:44:46.736Z,19.20
2023-04-23T16:47:19.053Z,19.12
2023-04-23T16:49:50.012Z,19.06
2023-04-23T16:52:20.776Z,19.01
2023-04-23T16:54:51.797Z,18.98
2023-04-23T16:57:22.920Z,18.96
2023-04-23T16:59:56.195Z,18.91
2023-04-23T17:02:29.440Z,18.84
2023-04-23T17:05:00.324Z,18.79
2023-04-23T17:07:30.991Z,18.74
2023-04-23T17:10:00.259Z,18.69
2023-04-23T17:12:41.115Z,18.65
2023-04-23T17:15:12.816Z,18.60
2023-04-23T17:17:45.890Z,18.54
2023-04-23T17:20:17.575Z,18.48
2023-04-23T17:22:48.291Z,18.44
2023-04-23T17:25:19.114Z,18.41
2023-04-23T17:27:48.148Z,18.34
2023-04-23T17:30:18.914Z,18.28
2023-04-23T17:32:48.046Z,18.25
2023-04-23T17:35:23.973Z,18.21
2023-04-23T17:37:54.687Z,18.16
2023-04-23T17:40:32.229Z,18.13
2023-04-23T17:43:03.204Z,18.09
2023-04-23T17:45:35.310Z,18.06
2023-04-23T17:48:05.278Z,18.03
2023-04-23T17:50:36.750Z,18.00
2023-04-23T17:53:07.602Z,17.98
2023-04-23T17:55:40.560Z,17.95
2023-04-23T17:58:11.212Z,17.91
2023-04-23T18:00:44.401Z,17.88
2023-04-23T18:03:14.741Z,17.84
2023-04-23T18:05:45.557Z,17.76
2023-04-23T18:08:14.599Z,17.63
2023-04-23T18:10:45.565Z,17.48
2023-04-23T18:13:16.453Z,17.36
2023-04-23T18:15:45.629Z,17.22
2023-04-23T18:18:16.374Z,17.09
2023-04-23T18:20:47.290Z,16.97
2023-04-23T18:23:20.622Z,16.90
2023-04-23T18:25:51.503Z,16.84
2023-04-23T18:28:23.576Z,16.78
2023-04-23T18:30:54.483Z,16.71
2023-04-23T18:33:30.684Z,16.68
2023-04-23T18:36:05.500Z,16.63
2023-04-23T18:38:43.881Z,16.57
2023-04-23T18:41:15.838Z,16.51
2023-04-23T18:43:46.519Z,16.46
2023-04-23T18:46:17.371Z,16.43
2023-04-23T18:48:50.780Z,16.41
2023-04-23T18:51:36.924Z,16.35
2023-04-23T18:54:07.609Z,16.25
2023-04-23T18:57:03.490Z,16.17
2023-04-23T18:59:34.178Z,16.02
2023-04-23T19:02:05.525Z,15.85
2023-04-23T19:04:57.023Z,15.76
2023-04-23T19:07:27.802Z,15.73
2023-04-23T19:09:58.448Z,15.73
2023-04-23T19:12:29.535Z,15.70
2023-04-23T19:15:00.172Z,15.64
2023-04-23T19:17:30.958Z,15.59
2023-04-23T19:20:00.175Z,15.54
2023-04-23T19:22:30.868Z,15.48
2023-04-23T19:25:01.504Z,15.39
2023-04-23T19:27:32.479Z,15.26
2023-04-23T19:30:06.792Z,15.19
2023-04-23T19:32:40.771Z,15.15
2023-04-23T19:35:11.493Z,15.13
2023-04-23T19:37:42.208Z,15.09
2023-04-23T19:40:13.634Z,15.04
2023-04-23T19:42:44.473Z,15.01
2023-04-23T19:45:18.173Z,14.96
2023-04-23T19:47:48.971Z,14.94
2023-04-23T19:50:23.743Z,14.92
2023-04-23T19:52:54.491Z,14.90
2023-04-23T19:55:28.636Z,14.89
2023-04-23T19:57:59.387Z,14.86
2023-04-23T20:00:30.066Z,14.82
2023-04-23T20:03:01.056Z,14.77
2023-04-23T20:05:36.442Z,14.71
2023-04-23T20:08:10.399Z,14.65
2023-04-23T20:10:41.131Z,14.56
2023-04-23T20:13:14.474Z,14.45
2023-04-23T20:15:45.437Z,14.38
2023-04-23T20:18:17.128Z,14.36
2023-04-23T20:20:47.753Z,14.37
2023-04-23T20:23:18.501Z,14.39
2023-04-23T20:25:51.382Z,14.41
2023-04-23T20:28:55.007Z,14.41
2023-04-23T20:31:23.494Z,14.39
2023-04-23T20:33:54.190Z,14.35
2023-04-23T20:36:25.861Z,14.29
2023-04-23T20:38:56.660Z,14.25
2023-04-23T20:41:30.319Z,14.19
2023-04-23T20:44:01.294Z,14.12
2023-04-23T20:46:32.935Z,14.06
2023-04-23T20:49:06.140Z,14.02
2023-04-23T20:51:36.849Z,13.99
2023-04-23T20:54:07.741Z,13.96
2023-04-23T20:56:36.816Z,13.94
2023-04-23T20:59:07.535Z,13.89
2023-04-23T21:01:38.646Z,13.82
2023-04-23T21:04:09.987Z,13.74
2023-04-23T21:06:40.988Z,13.63
2023-04-23T21:09:11.682Z,13.54
2023-04-23T21:11:42.555Z,13.48
2023-04-23T21:14:11.758Z,13.46
2023-04-23T21:16:42.794Z,13.43
2023-04-23T21:19:13.455Z,13.40
2023-04-23T21:21:44.274Z,13.37
2023-04-23T21:24:13.376Z,13.34
2023-04-23T21:26:44.194Z,13.28
2023-04-23T21:29:14.878Z,13.22
2023-04-23T21:31:48.370Z,13.16
2023-04-23T21:34:19.384Z,13.12
2023-04-23T21:36:50.434Z,13.09
2023-04-23T21:39:19.526Z,13.06
2023-04-23T21:41:50.196Z,13.00
2023-04-23T21:44:20.932Z,12.94
2023-04-23T21:46:51.658Z,12.93
2023-04-23T21:49:22.430Z,12.90
2023-04-23T21:51:53.070Z,12.88
2023-04-23T21:54:23.792Z,12.85
2023-04-23T21:56:54.660Z,12.84
2023-04-23T21:59:23.761Z,12.84
2023-04-23T22:01:54.879Z,12.83
2023-04-23T22:04:25.783Z,12.82
2023-04-23T22:07:17.341Z,12.80
2023-04-23T22:09:48.055Z,12.75
2023-04-23T22:12:18.737Z,12.70
2023-04-23T22:14:49.541Z,12.64
2023-04-23T22:17:20.257Z,12.58
2023-04-23T22:19:50.969Z,12.52
2023-04-23T22:22:21.691Z,12.47
2023-04-23T22:24:52.385Z,12.45
2023-04-23T22:27:23.105Z,12.42
2023-04-23T22:29:53.757Z,12.39
2023-04-23T22:32:24.403Z,12.38
2023-04-23T22:34:55.395Z,12.40
2023-04-23T22:37:26.210Z,12.41
2023-04-23T22:39:56.999Z,12.47
2023-04-23T22:42:27.886Z,12.49
2023-04-23T22:44:57.297Z,12.45
2023-04-23T22:47:28.409Z,12.42
2023-04-23T22:49:59.304Z,12.41
2023-04-23T22:52:28.430Z,12.47
2023-04-23T22:54:59.128Z,12.53
2023-04-23T22:57:30.163Z,12.53
2023-04-23T23:00:01.577Z,12.50
2023-04-23T23:02:32.365Z,12.49
2023-04-23T23:05:03.193Z,12.46
2023-04-23T23:07:33.772Z,12.47
2023-04-23T23:10:07.113Z,12.48
2023-04-23T23:12:38.325Z,12.50
2023-04-23T23:15:10.898Z,12.52
2023-04-23T23:17:41.597Z,12.53
2023-04-23T23:20:12.971Z,12.55
2023-04-23T23:22:43.770Z,12.57
2023-04-23T23:25:14.505Z,12.56
2023-04-23T23:27:45.181Z,12.56
2023-04-23T23:30:15.986Z,12.55
2023-04-23T23:32:47.239Z,12.50
2023-04-23T23:35:18.168Z,12.49
2023-04-23T23:37:48.813Z,12.51
2023-04-23T23:40:20.040Z,12.57
2023-04-23T23:42:50.658Z,12.63
2023-04-23T23:45:21.354Z,12.68
2023-04-23T23:47:52.309Z,12.65
2023-04-23T23:50:23.396Z,12.64
2023-04-23T23:52:52.477Z,12.65
2023-04-23T23:55:23.124Z,12.62
2023-04-23T23:57:53.779Z,12.61
